»·PEaware :: N149CD KWHP-KFUL

N149CD :: KWHP-KFUL

FLIGHT INFORMATION

Flight Status: Arrived
Operator: Privately registered:
United States
More flights under this callsign
Pilot: Nathan E. (30132)
Aircraft: CIRRUS SR-22
(SR22)
More flights by this aircraft type
Origin: KWHP Whiteman
United States
Destination: KFUL Fullerton Mun
United States
More flights between these airports :: More routes between these airports
Route: WHITEMAN1 VNY V186 ADAMM V394 SLI
File this flight plan on PilotEdge
Remarks: TEC route BURP19
Altitude:
(Current/Filed)
5,000ft
Speed:
(Current/Filed)
170kts
Departed: 16-Jan-21 04:35 PM
Arrived: 16-Jan-21 05:06 PM
Distance/Time
Traveled:
32nm/0:31
Distance/Time
To Go:
Arrived

Flight Plot

Page will automatically refresh every two minutes.

Flight plan parsing failed; only flown route is shown


Map Options




Map Legend


Flown Route
Filed Route
Departure Airport
Arrival Airport
Navaid (VOR, NDB)
Fix

Horizontal Profiles

Position Reports

Time Latitude Longitude Heading Altitude Ground
Speed
16-Jan-21 16:11 34.261141 -118.412548 139 1003ft 0kts
16-Jan-21 16:12 34.261141 -118.412548 139 1003ft 0kts
16-Jan-21 16:13 34.261141 -118.412548 139 1003ft 0kts
16-Jan-21 16:14 34.261141 -118.412548 139 1003ft 0kts
16-Jan-21 16:15 34.261141 -118.412548 139 1003ft 0kts
16-Jan-21 16:16 34.261141 -118.412548 139 1003ft 0kts
16-Jan-21 16:17 34.261141 -118.412548 139 1003ft 0kts
16-Jan-21 16:18 34.261141 -118.412548 139 1003ft 0kts
16-Jan-21 16:19 34.261141 -118.412548 139 1003ft 0kts
16-Jan-21 16:20 34.261141 -118.412548 139 1003ft 0kts
16-Jan-21 16:21 34.261141 -118.412548 139 1003ft 0kts
16-Jan-21 16:21 34.261141 -118.412548 139 1003ft 0kts
16-Jan-21 16:22 34.261141 -118.412548 139 1003ft 0kts
16-Jan-21 16:24 34.261141 -118.412548 139 1003ft 0kts
16-Jan-21 16:25 34.261141 -118.412548 139 1003ft 0kts
16-Jan-21 16:26 34.261141 -118.412548 139 1003ft 0kts
16-Jan-21 16:26 34.261141 -118.412548 139 1003ft 0kts
16-Jan-21 16:27 34.260971 -118.412498 186 1001ft 4kts
16-Jan-21 16:28 34.259046 -118.412529 137 988ft 12kts
16-Jan-21 16:29 34.256940 -118.409973 136 976ft 8kts
16-Jan-21 16:30 34.256824 -118.409903 310 975ft 0kts
16-Jan-21 16:31 34.256824 -118.409903 310 975ft 0kts
16-Jan-21 16:32 34.256824 -118.409903 310 975ft 0kts
16-Jan-21 16:33 34.256138 -118.409469 138 972ft 8kts
16-Jan-21 16:34 34.260911 -118.415230 321 1060ft 99kts
16-Jan-21 16:35 34.276731 -118.448633 271 2144ft 134kts
16-Jan-21 16:36 34.275597 -118.494292 271 3194ft 136kts
16-Jan-21 16:37 34.287854 -118.528502 317 4207ft 117kts
16-Jan-21 16:38 34.267328 -118.549196 136 4983ft 150kts
16-Jan-21 16:39 34.236102 -118.508424 127 4971ft 171kts
16-Jan-21 16:40 34.214231 -118.461020 104 4959ft 158kts
16-Jan-21 16:41 34.199195 -118.411385 106 4958ft 155kts
16-Jan-21 16:42 34.184319 -118.362475 107 4956ft 154kts
16-Jan-21 16:43 34.169454 -118.313590 108 4956ft 156kts
16-Jan-21 16:44 34.154418 -118.264228 108 4952ft 155kts
16-Jan-21 16:45 34.139697 -118.215079 101 4952ft 154kts
16-Jan-21 16:46 34.131989 -118.164180 98 4963ft 153kts
16-Jan-21 16:47 34.124631 -118.111940 100 4985ft 163kts
16-Jan-21 16:48 34.116839 -118.056885 100 4991ft 166kts
16-Jan-21 16:49 34.108984 -118.001444 98 5023ft 167kts
16-Jan-21 16:50 34.101102 -117.945959 98 5033ft 167kts
16-Jan-21 16:51 34.093225 -117.890676 97 5044ft 165kts
16-Jan-21 16:52 34.085426 -117.836122 97 5054ft 163kts
16-Jan-21 16:53 34.073915 -117.790207 155 4995ft 114kts
16-Jan-21 16:54 34.039643 -117.785660 175 4935ft 148kts
16-Jan-21 16:55 34.001278 -117.784090 174 4268ft 116kts
16-Jan-21 16:56 33.971708 -117.782923 170 3823ft 102kts
16-Jan-21 16:57 33.947845 -117.781956 172 3481ft 104kts
16-Jan-21 16:58 33.924102 -117.780984 173 3123ft 116kts
16-Jan-21 16:59 33.905886 -117.804970 252 2878ft 113kts
16-Jan-21 17:00 33.898382 -117.842583 255 2561ft 119kts
16-Jan-21 17:01 33.890997 -117.881162 255 1897ft 107kts
16-Jan-21 17:02 33.884487 -117.915042 254 1285ft 106kts
16-Jan-21 17:03 33.878050 -117.948541 254 689ft 93kts
16-Jan-21 17:04 33.872625 -117.976680 254 98ft 73kts
16-Jan-21 17:05 33.871101 -117.983307 165 89ft 0kts

Navigation Log

Ident Type
Flight plan parsing failed, navigation log unavailable